createdAt,value
2023-04-15T00:02:18.555Z,3.37
2023-04-15T00:05:23.966Z,3.33
2023-04-15T00:08:31.040Z,3.37
2023-04-15T00:11:36.125Z,3.37
2023-04-15T00:14:41.279Z,3.36
2023-04-15T00:17:46.509Z,3.43
2023-04-15T00:20:52.658Z,3.36
2023-04-15T00:23:59.513Z,3.37
2023-04-15T00:27:04.821Z,3.43
2023-04-15T00:30:10.663Z,3.37
2023-04-15T00:33:16.551Z,3.37
2023-04-15T00:36:21.613Z,3.38
2023-04-15T00:39:30.030Z,3.32
2023-04-15T00:42:36.126Z,3.37
2023-04-15T00:45:41.328Z,3.34
2023-04-15T00:48:49.285Z,3.35
2023-04-15T00:51:54.473Z,3.36
2023-04-15T00:55:01.272Z,3.35
2023-04-15T00:58:06.491Z,3.44
2023-04-15T01:01:12.739Z,3.43
2023-04-15T01:04:18.563Z,3.44
2023-04-15T01:07:23.702Z,3.44
2023-04-15T01:10:30.829Z,3.46
2023-04-15T01:13:36.786Z,3.50
2023-04-15T01:16:42.034Z,3.49
2023-04-15T01:19:47.584Z,3.55
2023-04-15T01:22:52.844Z,3.61
2023-04-15T01:26:00.303Z,3.64
2023-04-15T01:29:05.470Z,3.68
2023-04-15T01:32:12.420Z,3.68
2023-04-15T01:35:17.578Z,3.74
2023-04-15T01:38:22.842Z,3.74
2023-04-15T01:41:30.355Z,3.72
2023-04-15T01:44:35.387Z,3.78
2023-04-15T01:47:41.376Z,3.83
2023-04-15T01:50:48.487Z,3.83
2023-04-15T01:53:53.623Z,3.84
2023-04-15T01:57:00.046Z,3.89
2023-04-15T02:00:07.734Z,3.94
2023-04-15T02:03:18.549Z,3.93
2023-04-15T02:06:24.541Z,3.99
2023-04-15T02:09:30.090Z,4.01
2023-04-15T02:12:36.530Z,3.98
2023-04-15T02:15:41.851Z,4.04
2023-04-15T02:18:47.567Z,3.99
2023-04-15T02:21:52.668Z,4.04
2023-04-15T02:24:57.719Z,4.07
2023-04-15T02:28:04.542Z,4.11
2023-04-15T02:31:10.074Z,4.13
2023-04-15T02:34:15.448Z,4.11
2023-04-15T02:37:24.800Z,4.13
2023-04-15T02:40:29.849Z,4.18
2023-04-15T02:43:36.501Z,4.16
2023-04-15T02:46:42.412Z,4.13
2023-04-15T02:49:47.790Z,4.19
2023-04-15T02:52:53.252Z,4.22
2023-04-15T02:55:59.366Z,4.25
2023-04-15T02:59:06.163Z,4.26
2023-04-15T03:02:11.380Z,4.27
2023-04-15T03:05:16.672Z,4.31
2023-04-15T03:08:27.584Z,4.31
2023-04-15T03:11:37.130Z,4.32
2023-04-15T03:14:44.166Z,4.38
2023-04-15T03:17:49.817Z,4.34
2023-04-15T03:20:55.566Z,4.37
2023-04-15T03:24:02.644Z,4.39
2023-04-15T03:27:08.610Z,4.39
2023-04-15T03:30:16.261Z,4.43
2023-04-15T03:33:21.656Z,4.40
2023-04-15T03:36:27.413Z,4.38
2023-04-15T03:39:32.580Z,4.42
2023-04-15T03:42:37.646Z,4.42
2023-04-15T03:45:44.376Z,4.40
2023-04-15T03:48:49.427Z,4.42
2023-04-15T03:51:54.828Z,4.36
2023-04-15T03:54:59.862Z,4.36
2023-04-15T03:58:05.207Z,4.37
2023-04-15T04:01:13.190Z,4.45
2023-04-15T04:04:18.752Z,4.42
2023-04-15T04:07:25.747Z,4.42
2023-04-15T04:10:31.048Z,4.44
2023-04-15T04:13:36.302Z,4.47
2023-04-15T04:16:42.843Z,4.53
2023-04-15T04:19:47.909Z,4.65
2023-04-15T04:22:53.043Z,4.63
2023-04-15T04:25:58.327Z,4.64
2023-04-15T04:29:03.700Z,4.62
2023-04-15T04:32:11.040Z,4.58
2023-04-15T04:35:16.241Z,4.51
2023-04-15T04:38:21.466Z,4.46
2023-04-15T04:41:26.651Z,4.51
2023-04-15T04:44:31.712Z,4.50
2023-04-15T04:47:38.358Z,4.51
2023-04-15T04:50:43.608Z,4.54
2023-04-15T04:53:48.826Z,4.59
2023-04-15T04:56:54.000Z,4.63
2023-04-15T04:59:59.207Z,4.66
2023-04-15T05:03:05.964Z,4.69
2023-04-15T05:06:11.445Z,4.74
2023-04-15T05:09:16.620Z,4.74
2023-04-15T05:12:21.657Z,4.75
2023-04-15T05:15:26.692Z,4.78
2023-04-15T05:18:33.338Z,4.79
2023-04-15T05:21:39.542Z,4.76
2023-04-15T05:24:44.784Z,4.83
2023-04-15T05:27:49.880Z,4.83
2023-04-15T05:30:55.100Z,4.87
2023-04-15T05:34:01.771Z,4.93
2023-04-15T05:37:07.134Z,4.94
2023-04-15T05:40:14.469Z,5.00
2023-04-15T05:43:19.556Z,5.06
2023-04-15T05:46:24.841Z,5.08
2023-04-15T05:49:32.033Z,5.09
2023-04-15T05:52:37.227Z,5.15
2023-04-15T05:55:42.279Z,5.21
2023-04-15T05:58:47.452Z,5.32
2023-04-15T06:01:53.766Z,5.38
2023-04-15T06:05:01.166Z,5.41
2023-04-15T06:08:06.737Z,5.57
2023-04-15T06:11:11.823Z,5.59
2023-04-15T06:14:17.109Z,5.60
2023-04-15T06:17:22.249Z,5.71
2023-04-15T06:20:29.022Z,5.79
2023-04-15T06:23:36.608Z,5.88
2023-04-15T06:26:41.750Z,5.95
2023-04-15T06:29:46.780Z,6.22
2023-04-15T06:32:51.904Z,6.97
2023-04-15T06:35:58.712Z,6.74
2023-04-15T06:39:04.067Z,6.77
2023-04-15T06:42:12.489Z,6.97
2023-04-15T06:45:17.867Z,6.96
2023-04-15T06:48:22.898Z,7.21
2023-04-15T06:51:29.515Z,6.98
2023-04-15T06:54:34.561Z,7.15
2023-04-15T06:57:39.644Z,7.08
2023-04-15T07:00:44.976Z,7.03
2023-04-15T07:03:50.330Z,7.45
2023-04-15T07:06:56.936Z,7.26
2023-04-15T07:10:03.421Z,7.16
2023-04-15T07:13:09.026Z,7.50
2023-04-15T07:16:16.168Z,7.42
2023-04-15T07:19:21.202Z,7.49
2023-04-15T07:22:27.747Z,7.40
2023-04-15T07:25:32.853Z,7.52
2023-04-15T07:28:38.100Z,7.30
2023-04-15T07:31:43.447Z,7.39
2023-04-15T07:34:48.627Z,7.52
2023-04-15T07:37:55.480Z,7.57
2023-04-15T07:41:00.690Z,7.24
2023-04-15T07:44:06.129Z,7.43
2023-04-15T07:47:11.951Z,7.48
2023-04-15T07:50:17.454Z,7.49
2023-04-15T07:53:24.180Z,7.23
2023-04-15T07:56:29.275Z,7.22
2023-04-15T07:59:34.436Z,7.05
2023-04-15T08:02:40.465Z,7.05
2023-04-15T08:05:47.378Z,7.24
2023-04-15T08:08:54.667Z,7.13
2023-04-15T08:11:59.818Z,7.15
2023-04-15T08:15:05.179Z,7.31
2023-04-15T08:18:13.846Z,7.33
2023-04-15T08:21:20.055Z,7.27
2023-04-15T08:24:27.457Z,7.17
2023-04-15T08:27:32.527Z,7.20
2023-04-15T08:30:37.709Z,7.49
2023-04-15T08:33:42.858Z,7.45
2023-04-15T08:36:47.925Z,7.55
2023-04-15T08:39:54.531Z,7.48
2023-04-15T08:43:00.020Z,7.58
2023-04-15T08:46:06.993Z,7.61
2023-04-15T08:49:13.583Z,7.63
2023-04-15T08:52:18.671Z,7.52
2023-04-15T08:55:25.907Z,7.50
2023-04-15T08:58:31.617Z,7.52
2023-04-15T09:01:37.489Z,7.55
2023-04-15T09:04:42.571Z,7.59
2023-04-15T09:07:47.822Z,7.56
2023-04-15T09:10:55.197Z,7.65
2023-04-15T09:14:00.360Z,7.70
2023-04-15T09:17:06.231Z,7.68
2023-04-15T09:20:13.939Z,7.72
2023-04-15T09:23:19.130Z,7.69
2023-04-15T09:26:34.580Z,7.71
2023-04-15T09:29:39.629Z,7.74
2023-04-15T09:32:52.036Z,7.79
2023-04-15T09:36:01.963Z,7.85
2023-04-15T09:39:07.351Z,7.84
2023-04-15T09:42:17.992Z,7.89
2023-04-15T09:45:25.708Z,7.83
2023-04-15T09:48:32.269Z,7.82
2023-04-15T09:51:37.868Z,7.86
2023-04-15T09:54:42.901Z,7.94
2023-04-15T09:57:49.951Z,7.89
2023-04-15T10:00:56.812Z,7.89
2023-04-15T10:04:05.998Z,7.90
2023-04-15T10:07:11.841Z,7.80
2023-04-15T10:10:18.118Z,7.82
2023-04-15T10:13:26.112Z,7.87
2023-04-15T10:16:31.614Z,7.80
2023-04-15T10:19:38.957Z,7.79
2023-04-15T10:22:44.566Z,7.87
2023-04-15T10:25:50.453Z,7.80
2023-04-15T10:28:58.481Z,7.76
2023-04-15T10:32:05.633Z,7.94
2023-04-15T10:35:11.314Z,7.78
2023-04-15T10:38:36.801Z,7.84
2023-04-15T10:45:08.658Z,7.92
2023-04-15T10:48:18.571Z,7.90
2023-04-15T10:51:31.639Z,7.98
2023-04-15T10:54:39.025Z,8.01
2023-04-15T10:57:45.421Z,8.10
2023-04-15T11:00:54.891Z,8.11
2023-04-15T11:03:59.988Z,8.10
2023-04-15T11:07:08.762Z,8.11
2023-04-15T11:10:54.039Z,8.04
2023-04-15T11:13:59.580Z,8.30
2023-04-15T11:17:06.548Z,8.27
2023-04-15T11:20:17.745Z,8.29
2023-04-15T11:23:30.336Z,8.37
2023-04-15T11:26:35.636Z,8.22
2023-04-15T11:29:40.852Z,8.36
2023-04-15T11:32:47.285Z,8.38
2023-04-15T11:35:52.819Z,8.40
2023-04-15T11:39:00.027Z,8.39
2023-04-15T11:42:05.361Z,8.45
2023-04-15T11:45:11.401Z,8.44
2023-04-15T11:48:18.467Z,8.27
2023-04-15T11:51:23.663Z,8.34
2023-04-15T11:54:28.765Z,8.31
2023-04-15T11:57:34.001Z,8.39
2023-04-15T12:00:41.679Z,8.36
2023-04-15T12:03:50.283Z,8.50
2023-04-15T12:06:56.032Z,8.26
2023-04-15T12:10:02.087Z,8.46
2023-04-15T12:13:09.616Z,8.45
2023-04-15T12:16:15.796Z,8.37
2023-04-15T12:19:26.469Z,8.35
2023-04-15T12:22:31.519Z,8.13
2023-04-15T12:25:37.394Z,8.26
2023-04-15T12:28:42.910Z,8.34
2023-04-15T12:31:52.619Z,8.33
2023-04-15T12:34:59.703Z,8.10
2023-04-15T12:38:04.766Z,8.08
2023-04-15T12:41:10.933Z,8.14
2023-04-15T12:44:16.215Z,8.36
2023-04-15T12:47:21.427Z,8.30
2023-04-15T12:50:28.170Z,8.39
2023-04-15T12:53:33.343Z,8.37
2023-04-15T12:56:38.424Z,8.29
2023-04-15T12:59:43.562Z,8.26
2023-04-15T13:02:49.413Z,8.31
2023-04-15T13:05:57.810Z,8.16
2023-04-15T13:09:05.258Z,8.24
2023-04-15T13:12:13.916Z,8.17
2023-04-15T13:15:20.802Z,8.16
2023-04-15T13:18:26.024Z,8.05
2023-04-15T13:21:35.746Z,8.23
2023-04-15T13:24:41.296Z,8.08
2023-04-15T13:27:46.752Z,8.11
2023-04-15T13:30:52.398Z,8.07
2023-04-15T13:33:57.953Z,7.99
2023-04-15T13:37:09.949Z,8.14
2023-04-15T13:40:15.150Z,8.15
2023-04-15T13:43:21.674Z,8.21
2023-04-15T13:46:27.310Z,8.14
2023-04-15T13:49:32.372Z,8.08
2023-04-15T13:52:39.117Z,8.17
2023-04-15T13:55:44.844Z,8.15
2023-04-15T13:58:50.027Z,8.04
2023-04-15T14:01:55.289Z,8.05
2023-04-15T14:05:00.409Z,8.18
2023-04-15T14:08:07.057Z,7.95
2023-04-15T14:11:12.753Z,7.96
2023-04-15T14:14:17.820Z,7.94
2023-04-15T14:17:22.982Z,7.81
2023-04-15T14:20:28.173Z,7.85
2023-04-15T14:23:34.766Z,7.85
2023-04-15T14:26:39.885Z,7.65
2023-04-15T14:29:44.996Z,7.83
2023-04-15T14:32:50.486Z,7.86
2023-04-15T14:35:55.597Z,7.64
2023-04-15T14:39:02.145Z,7.63
2023-04-15T14:42:07.223Z,7.46
2023-04-15T14:45:13.124Z,7.44
2023-04-15T14:48:18.423Z,7.39
2023-04-15T14:51:24.641Z,7.38
2023-04-15T14:54:32.641Z,7.46
2023-04-15T14:57:38.332Z,7.39
2023-04-15T15:00:44.832Z,7.33
2023-04-15T15:03:50.365Z,7.38
2023-04-15T15:06:55.827Z,7.38
2023-04-15T15:10:02.436Z,7.38
2023-04-15T15:13:09.376Z,7.36
2023-04-15T15:16:15.426Z,7.46
2023-04-15T15:19:20.805Z,7.47
2023-04-15T15:22:26.840Z,7.45
2023-04-15T15:25:33.271Z,7.24
2023-04-15T15:28:38.436Z,7.24
2023-04-15T15:31:43.619Z,7.19
2023-04-15T15:34:49.212Z,7.23
2023-04-15T15:37:55.065Z,7.24
2023-04-15T15:41:01.598Z,7.14
2023-04-15T15:44:06.620Z,7.10
2023-04-15T15:47:12.105Z,7.17
2023-04-15T15:50:17.276Z,7.18
2023-04-15T15:53:24.393Z,7.14
2023-04-15T15:56:31.019Z,7.13
2023-04-15T15:59:36.456Z,7.07
2023-04-15T16:05:49.698Z,6.95
2023-04-15T16:08:54.868Z,6.90
2023-04-15T16:12:02.101Z,6.89
2023-04-15T16:15:08.320Z,6.77
2023-04-15T16:18:13.336Z,6.75
2023-04-15T16:21:19.593Z,6.71
2023-04-15T16:24:25.895Z,6.65
2023-04-15T16:27:32.832Z,6.64
2023-04-15T16:30:38.910Z,6.60
2023-04-15T16:33:44.145Z,6.55
2023-04-15T16:36:49.457Z,6.56
2023-04-15T16:39:55.192Z,6.48
2023-04-15T16:43:01.656Z,6.42
2023-04-15T16:46:06.759Z,6.42
2023-04-15T16:49:12.346Z,6.32
2023-04-15T16:52:17.446Z,6.35
2023-04-15T16:55:22.732Z,6.31
2023-04-15T16:58:29.385Z,6.29
2023-04-15T17:01:34.720Z,6.28
2023-04-15T17:04:40.293Z,6.24
2023-04-15T17:07:45.513Z,6.21
2023-04-15T17:10:51.878Z,6.21
2023-04-15T17:13:58.540Z,6.11
2023-04-15T17:17:04.260Z,6.15
2023-04-15T17:20:09.820Z,6.10
2023-04-15T17:23:14.963Z,6.04
2023-04-15T17:26:20.352Z,5.97
2023-04-15T17:29:27.140Z,5.93
2023-04-15T17:32:34.786Z,5.93
2023-04-15T17:35:40.987Z,5.85
2023-04-15T17:38:46.590Z,5.83
2023-04-15T17:41:51.676Z,5.73
2023-04-15T17:44:58.886Z,5.67
2023-04-15T17:48:04.948Z,5.61
2023-04-15T17:51:12.851Z,5.58
2023-04-15T17:54:17.925Z,5.54
2023-04-15T17:57:23.009Z,5.50
2023-04-15T18:00:29.731Z,5.45
2023-04-15T18:03:35.041Z,5.44
2023-04-15T18:06:40.562Z,5.33
2023-04-15T18:09:45.782Z,5.31
2023-04-15T18:12:50.825Z,5.32
2023-04-15T18:15:57.667Z,5.28
2023-04-15T18:19:02.763Z,5.21
2023-04-15T18:22:07.893Z,5.10
2023-04-15T18:25:12.970Z,5.16
2023-04-15T18:28:18.183Z,5.10
2023-04-15T18:31:24.887Z,5.08
2023-04-15T18:34:30.212Z,5.03
2023-04-15T18:37:35.741Z,4.99
2023-04-15T18:40:41.085Z,5.01
2023-04-15T18:43:46.130Z,4.94
2023-04-15T18:46:52.687Z,4.98
2023-04-15T18:49:58.555Z,4.94
2023-04-15T18:53:03.704Z,4.96
2023-04-15T18:56:09.286Z,4.87
2023-04-15T18:59:29.659Z,4.87
2023-04-15T19:02:37.533Z,4.83
2023-04-15T19:05:42.744Z,4.75
2023-04-15T19:08:47.837Z,4.73
2023-04-15T19:11:52.990Z,4.69
2023-04-15T19:14:58.558Z,4.71
2023-04-15T19:18:10.434Z,4.67
2023-04-15T19:21:15.591Z,4.70
2023-04-15T19:24:21.560Z,4.67
2023-04-15T19:27:27.802Z,4.63
2023-04-15T19:30:33.644Z,4.58
2023-04-15T19:33:40.643Z,4.55
2023-04-15T19:36:46.111Z,4.56
2023-04-15T19:39:51.200Z,4.50
2023-04-15T19:42:56.509Z,4.48
2023-04-15T19:46:01.659Z,4.38
2023-04-15T19:49:08.334Z,4.43
2023-04-15T19:52:14.345Z,4.40
2023-04-15T19:55:19.710Z,4.32
2023-04-15T19:58:24.782Z,4.38
2023-04-15T20:01:30.299Z,4.32
2023-04-15T20:04:37.088Z,4.28
2023-04-15T20:07:43.191Z,4.26
2023-04-15T20:10:48.296Z,4.22
2023-04-15T20:13:53.767Z,4.31
2023-04-15T20:16:58.817Z,4.24
2023-04-15T20:20:06.255Z,4.26
2023-04-15T20:23:11.426Z,4.22
2023-04-15T20:26:18.189Z,4.24
2023-04-15T20:29:23.227Z,4.27
2023-04-15T20:32:28.989Z,4.18
2023-04-15T20:35:35.570Z,4.13
2023-04-15T20:38:40.757Z,4.13
2023-04-15T20:41:45.817Z,4.10
2023-04-15T20:44:51.245Z,4.14
2023-04-15T20:47:56.385Z,4.16
2023-04-15T20:51:03.021Z,4.12
2023-04-15T20:54:09.092Z,4.06
2023-04-15T20:57:14.458Z,4.06
2023-04-15T21:00:19.792Z,4.10
2023-04-15T21:03:25.162Z,4.07
2023-04-15T21:06:31.683Z,4.00
2023-04-15T21:09:38.474Z,4.02
2023-04-15T21:12:44.096Z,4.06
2023-04-15T21:15:53.322Z,3.95
2023-04-15T21:18:58.368Z,3.98
2023-04-15T21:22:05.295Z,3.99
2023-04-15T21:25:12.385Z,3.97
2023-04-15T21:28:17.512Z,4.00
2023-04-15T21:31:22.761Z,4.04
2023-04-15T21:34:28.058Z,4.14
2023-04-15T21:37:34.475Z,4.16
2023-04-15T21:40:40.801Z,4.06
2023-04-15T21:43:45.876Z,4.10
2023-04-15T21:46:51.534Z,4.14
2023-04-15T21:49:56.952Z,4.05
2023-04-15T21:53:03.669Z,4.10
2023-04-15T21:56:09.589Z,4.10
2023-04-15T21:59:15.211Z,4.11
2023-04-15T22:02:20.472Z,4.14
2023-04-15T22:05:26.528Z,4.19
2023-04-15T22:08:41.244Z,4.13
2023-04-15T22:11:50.106Z,4.07
2023-04-15T22:14:56.499Z,4.07
2023-04-15T22:18:01.599Z,4.05
2023-04-15T22:21:06.732Z,4.10
2023-04-15T22:24:36.914Z,4.06
2023-04-15T22:27:38.805Z,3.92
2023-04-15T22:30:44.136Z,4.03
2023-04-15T22:33:49.363Z,3.97
2023-04-15T22:36:54.870Z,3.85
2023-04-15T22:40:02.286Z,3.97
2023-04-15T22:43:07.408Z,4.02
2023-04-15T22:46:12.475Z,3.82
2023-04-15T22:49:17.803Z,3.83
2023-04-15T22:52:30.188Z,3.75
2023-04-15T22:55:37.715Z,3.85
2023-04-15T22:58:42.720Z,3.87
2023-04-15T23:01:48.368Z,3.75
2023-04-15T23:04:53.792Z,3.73
2023-04-15T23:07:58.926Z,3.66
2023-04-15T23:11:06.430Z,3.68
2023-04-15T23:14:12.806Z,3.70
2023-04-15T23:17:17.870Z,3.66
2023-04-15T23:20:22.993Z,3.49
2023-04-15T23:23:28.173Z,3.40
2023-04-15T23:26:34.687Z,3.46
2023-04-15T23:29:40.105Z,3.41
2023-04-15T23:32:45.240Z,3.28
2023-04-15T23:35:50.375Z,3.42
2023-04-15T23:38:55.539Z,3.44
2023-04-15T23:42:02.416Z,3.44
2023-04-15T23:45:08.350Z,3.34
2023-04-15T23:48:15.362Z,3.33
2023-04-15T23:51:20.588Z,3.30
2023-04-15T23:54:25.971Z,3.16
2023-04-15T23:57:32.540Z,3.27
